createdAt,value
2019-06-27T00:00:35.940Z,23.73
2019-06-27T00:03:02.221Z,23.71
2019-06-27T00:05:28.553Z,23.75
2019-06-27T00:07:54.868Z,23.76
2019-06-27T00:10:21.182Z,23.73
2019-06-27T00:12:47.516Z,23.70
2019-06-27T00:15:13.824Z,23.60
2019-06-27T00:17:40.163Z,23.55
2019-06-27T00:20:06.473Z,23.56
2019-06-27T00:22:32.803Z,23.47
2019-06-27T00:24:59.116Z,23.42
2019-06-27T00:27:25.449Z,23.39
2019-06-27T00:29:51.783Z,23.37
2019-06-27T00:32:18.091Z,23.37
2019-06-27T00:34:44.421Z,23.43
2019-06-27T00:37:10.732Z,23.43
2019-06-27T00:39:37.048Z,23.42
2019-06-27T00:42:03.396Z,23.41
2019-06-27T00:44:29.708Z,23.44
2019-06-27T00:46:56.041Z,23.47
2019-06-27T00:49:22.376Z,23.51
2019-06-27T00:51:48.684Z,23.42
2019-06-27T00:54:15.020Z,23.38
2019-06-27T00:56:41.328Z,23.39
2019-06-27T00:59:07.666Z,23.32
2019-06-27T01:01:33.976Z,23.29
2019-06-27T01:04:00.310Z,23.24
2019-06-27T01:06:26.620Z,23.23
2019-06-27T01:08:52.935Z,23.07
2019-06-27T01:11:19.270Z,23.12
2019-06-27T01:13:45.582Z,23.12
2019-06-27T01:16:11.911Z,23.09
2019-06-27T01:18:38.221Z,23.11
2019-06-27T01:21:04.559Z,23.07
2019-06-27T01:23:30.874Z,23.03
2019-06-27T01:25:57.214Z,22.97
2019-06-27T01:28:23.552Z,22.96
2019-06-27T01:30:49.869Z,22.91
2019-06-27T01:33:16.208Z,22.94
2019-06-27T01:35:42.521Z,22.97
2019-06-27T01:38:08.861Z,22.89
2019-06-27T01:40:35.175Z,22.82
2019-06-27T01:43:01.524Z,22.74
2019-06-27T01:45:27.825Z,22.71
2019-06-27T01:47:54.142Z,22.64
2019-06-27T01:50:20.487Z,22.60
2019-06-27T01:52:46.796Z,22.60
2019-06-27T01:55:13.133Z,22.60
2019-06-27T01:57:46.788Z,22.55
2019-06-27T02:00:05.785Z,22.47
2019-06-27T02:02:32.119Z,22.41
2019-06-27T02:04:58.438Z,22.43
2019-06-27T02:07:24.755Z,22.49
2019-06-27T02:09:51.118Z,22.54
2019-06-27T02:12:17.409Z,22.55
2019-06-27T02:14:43.742Z,22.57
2019-06-27T02:17:10.058Z,22.57
2019-06-27T02:19:36.396Z,22.49
2019-06-27T02:22:02.708Z,22.46
2019-06-27T02:24:29.046Z,22.42
2019-06-27T02:26:55.381Z,22.33
2019-06-27T02:29:21.696Z,22.24
2019-06-27T02:31:48.028Z,22.21
2019-06-27T02:34:14.342Z,22.25
2019-06-27T02:36:40.676Z,22.29
2019-06-27T02:39:08.389Z,22.23
2019-06-27T02:41:34.726Z,22.24
2019-06-27T02:44:01.048Z,22.29
2019-06-27T02:46:27.366Z,22.28
2019-06-27T02:48:53.698Z,22.32
2019-06-27T02:51:20.008Z,22.27
2019-06-27T02:53:46.341Z,22.27
2019-06-27T02:56:12.658Z,22.26
2019-06-27T02:58:38.996Z,22.23
2019-06-27T03:01:05.308Z,22.24
2019-06-27T03:03:31.643Z,22.26
2019-06-27T03:05:57.993Z,22.22
2019-06-27T03:08:24.296Z,22.13
2019-06-27T03:10:50.628Z,22.05
2019-06-27T03:13:16.937Z,22.01
2019-06-27T03:15:43.263Z,21.91
2019-06-27T03:18:09.600Z,21.86
2019-06-27T03:20:35.921Z,21.79
2019-06-27T03:23:02.256Z,21.76
2019-06-27T03:25:28.594Z,21.76
2019-06-27T03:27:54.914Z,21.71
2019-06-27T03:30:21.269Z,21.71
2019-06-27T03:32:47.561Z,21.69
2019-06-27T03:35:13.928Z,21.63
2019-06-27T03:37:40.209Z,21.64
2019-06-27T03:40:06.599Z,21.63
2019-06-27T03:42:32.920Z,21.62
2019-06-27T03:44:59.231Z,21.58
2019-06-27T03:47:25.571Z,21.56
2019-06-27T03:49:51.885Z,21.56
2019-06-27T03:52:18.219Z,21.54
2019-06-27T03:54:44.542Z,21.53
2019-06-27T03:57:10.881Z,21.56
2019-06-27T03:59:37.202Z,21.55
2019-06-27T04:02:03.537Z,21.49
2019-06-27T04:04:29.868Z,21.45
2019-06-27T04:06:56.187Z,21.60
2019-06-27T04:09:22.535Z,21.87
2019-06-27T04:11:48.848Z,22.04
2019-06-27T04:14:15.187Z,22.15
2019-06-27T04:16:41.504Z,22.20
2019-06-27T04:19:07.836Z,22.27
2019-06-27T04:21:34.153Z,22.33
2019-06-27T04:24:00.472Z,22.36
2019-06-27T04:26:26.814Z,22.43
2019-06-27T04:28:53.133Z,22.52
2019-06-27T04:31:19.469Z,22.57
2019-06-27T04:33:45.815Z,22.53
2019-06-27T04:36:12.112Z,22.52
2019-06-27T04:38:38.446Z,22.58
2019-06-27T04:41:04.949Z,22.71
2019-06-27T04:43:31.265Z,22.74
2019-06-27T04:45:57.603Z,22.77
2019-06-27T04:48:23.971Z,22.78
2019-06-27T04:50:50.277Z,22.76
2019-06-27T04:53:16.589Z,22.77
2019-06-27T04:55:42.924Z,22.77
2019-06-27T04:58:09.241Z,22.75
2019-06-27T05:00:35.599Z,22.75
2019-06-27T05:03:01.924Z,22.78
2019-06-27T05:05:28.236Z,22.83
2019-06-27T05:07:54.615Z,23.02
2019-06-27T05:10:20.929Z,23.20
2019-06-27T05:12:47.256Z,23.41
2019-06-27T05:15:13.595Z,23.47
2019-06-27T05:17:39.910Z,23.45
2019-06-27T05:20:06.247Z,23.41
2019-06-27T05:22:32.579Z,23.61
2019-06-27T05:24:58.892Z,23.62
2019-06-27T05:27:25.226Z,23.54
2019-06-27T05:29:51.536Z,23.44
2019-06-27T05:32:17.908Z,23.43
2019-06-27T05:34:44.263Z,23.54
2019-06-27T05:37:10.570Z,23.54
2019-06-27T05:39:36.882Z,23.66
2019-06-27T05:42:03.191Z,23.92
2019-06-27T05:44:29.664Z,24.03
2019-06-27T05:46:55.977Z,24.03
2019-06-27T05:49:22.306Z,24.09
2019-06-27T05:51:48.664Z,24.05
2019-06-27T05:54:14.961Z,24.03
2019-06-27T05:56:41.276Z,24.08
2019-06-27T05:59:07.584Z,24.27
2019-06-27T06:01:33.906Z,24.37
2019-06-27T06:04:00.241Z,24.36
2019-06-27T06:06:26.587Z,24.49
2019-06-27T06:08:52.929Z,24.59
2019-06-27T06:11:19.229Z,24.51
2019-06-27T06:13:45.557Z,24.43
2019-06-27T06:16:11.899Z,24.44
2019-06-27T06:18:38.223Z,24.62
2019-06-27T06:21:04.554Z,24.65
2019-06-27T06:23:30.865Z,24.66
2019-06-27T06:25:57.192Z,24.78
2019-06-27T06:28:23.493Z,24.86
2019-06-27T06:30:49.823Z,25.25
2019-06-27T06:33:16.130Z,25.62
2019-06-27T06:35:42.464Z,25.73
2019-06-27T06:38:08.769Z,25.73
2019-06-27T06:40:35.098Z,25.60
2019-06-27T06:43:01.408Z,25.50
2019-06-27T06:45:27.713Z,25.46
2019-06-27T06:47:54.038Z,25.48
2019-06-27T06:50:23.417Z,25.50
2019-06-27T06:52:46.673Z,25.56
2019-06-27T06:55:12.980Z,25.72
2019-06-27T06:57:39.380Z,25.78
2019-06-27T07:00:05.734Z,25.80
2019-06-27T07:02:32.005Z,25.82
2019-06-27T07:04:58.377Z,25.96
2019-06-27T07:07:24.685Z,26.09
2019-06-27T07:09:51.035Z,26.22
2019-06-27T07:12:17.367Z,26.25
2019-06-27T07:14:43.713Z,26.32
2019-06-27T07:17:10.041Z,26.53
2019-06-27T07:19:36.368Z,26.64
2019-06-27T07:22:02.682Z,26.63
2019-06-27T07:24:29.011Z,26.62
2019-06-27T07:26:55.317Z,26.64
2019-06-27T07:29:21.642Z,26.67
2019-06-27T07:31:47.996Z,26.73
2019-06-27T07:34:14.324Z,27.09
2019-06-27T07:36:40.679Z,27.20
2019-06-27T07:39:06.945Z,27.22
2019-06-27T07:41:33.275Z,27.39
2019-06-27T07:43:59.580Z,27.42
2019-06-27T07:46:26.166Z,27.51
2019-06-27T07:48:52.253Z,27.70
2019-06-27T07:51:18.575Z,27.72
2019-06-27T07:53:44.888Z,27.65
2019-06-27T07:56:11.211Z,27.57
2019-06-27T07:58:37.546Z,27.48
2019-06-27T08:01:03.845Z,27.44
2019-06-27T08:03:30.175Z,27.47
2019-06-27T08:05:56.492Z,27.59
2019-06-27T08:08:22.823Z,27.66
2019-06-27T08:10:49.175Z,27.66
2019-06-27T08:13:15.445Z,27.72
2019-06-27T08:15:41.765Z,27.84
2019-06-27T08:18:08.074Z,27.92
2019-06-27T08:20:34.406Z,27.96
2019-06-27T08:23:00.716Z,28.00
2019-06-27T08:25:27.040Z,28.01
2019-06-27T08:27:53.436Z,28.07
2019-06-27T08:30:19.732Z,28.15
2019-06-27T08:32:46.061Z,28.26
2019-06-27T08:35:12.366Z,28.34
2019-06-27T08:37:38.681Z,28.43
2019-06-27T08:40:05.097Z,28.68
2019-06-27T08:42:31.389Z,29.01
2019-06-27T08:44:57.754Z,29.16
2019-06-27T08:47:24.654Z,29.16
2019-06-27T08:49:51.504Z,29.16
2019-06-27T08:52:18.265Z,29.13
2019-06-27T08:54:44.610Z,28.95
2019-06-27T08:57:10.952Z,28.97
2019-06-27T08:59:37.276Z,29.27
2019-06-27T09:02:08.504Z,29.35
2019-06-27T09:04:29.884Z,29.11
2019-06-27T09:06:56.212Z,28.95
2019-06-27T09:09:22.519Z,28.91
2019-06-27T09:11:48.843Z,28.87
2019-06-27T09:14:15.148Z,28.92
2019-06-27T09:16:41.465Z,28.98
2019-06-27T09:19:07.810Z,29.26
2019-06-27T09:21:34.125Z,29.49
2019-06-27T09:24:00.450Z,29.62
2019-06-27T09:26:26.763Z,29.84
2019-06-27T09:28:53.100Z,29.91
2019-06-27T09:31:19.400Z,29.79
2019-06-27T09:33:45.726Z,29.67
2019-06-27T09:36:12.054Z,29.65
2019-06-27T09:38:38.386Z,29.67
2019-06-27T09:41:04.679Z,29.67
2019-06-27T09:43:30.985Z,29.76
2019-06-27T09:45:57.289Z,30.06
2019-06-27T09:48:23.683Z,30.20
2019-06-27T09:50:49.989Z,30.17
2019-06-27T09:53:16.313Z,30.29
2019-06-27T09:55:42.643Z,30.32
2019-06-27T09:58:08.987Z,30.28
2019-06-27T10:00:35.266Z,30.27
2019-06-27T10:03:01.673Z,30.31
2019-06-27T10:05:27.899Z,30.42
2019-06-27T10:07:54.216Z,30.50
2019-06-27T10:10:20.531Z,30.58
2019-06-27T10:12:46.835Z,30.61
2019-06-27T10:15:13.149Z,30.62
2019-06-27T10:17:39.555Z,30.65
2019-06-27T10:20:05.780Z,30.63
2019-06-27T10:22:32.111Z,30.68
2019-06-27T10:24:58.436Z,30.71
2019-06-27T10:27:24.739Z,30.72
2019-06-27T10:29:51.115Z,30.62
2019-06-27T10:32:17.420Z,30.57
2019-06-27T10:34:43.764Z,30.57
2019-06-27T10:37:10.071Z,30.55
2019-06-27T10:39:36.380Z,30.66
2019-06-27T10:42:02.707Z,30.71
2019-06-27T10:44:29.086Z,30.73
2019-06-27T10:46:55.482Z,30.76
2019-06-27T10:49:21.726Z,30.83
2019-06-27T10:51:48.044Z,30.81
2019-06-27T10:54:14.383Z,30.67
2019-06-27T10:56:40.694Z,30.55
2019-06-27T10:59:07.022Z,30.60
2019-06-27T11:01:33.321Z,30.73
2019-06-27T11:03:59.640Z,30.85
2019-06-27T11:06:25.969Z,30.90
2019-06-27T11:08:52.274Z,30.81
2019-06-27T11:11:18.593Z,30.88
2019-06-27T11:13:57.947Z,30.94
2019-06-27T11:16:11.225Z,30.85
2019-06-27T11:18:37.558Z,30.74
2019-06-27T11:21:03.863Z,30.62
2019-06-27T11:23:30.185Z,30.70
2019-06-27T11:25:56.500Z,30.72
2019-06-27T11:28:22.817Z,30.74
2019-06-27T11:30:49.134Z,30.74
2019-06-27T11:33:31.338Z,30.75
2019-06-27T11:35:41.778Z,30.69
2019-06-27T11:38:08.073Z,30.63
2019-06-27T11:40:34.404Z,30.70
2019-06-27T11:43:00.715Z,30.73
2019-06-27T11:45:27.068Z,30.78
2019-06-27T11:47:53.352Z,30.81
2019-06-27T11:50:19.688Z,30.78
2019-06-27T11:52:47.256Z,30.68
2019-06-27T11:55:12.321Z,30.68
2019-06-27T11:57:39.068Z,30.71
2019-06-27T12:00:05.375Z,30.69
2019-06-27T12:02:34.974Z,30.70
2019-06-27T12:05:01.287Z,30.74
2019-06-27T12:07:27.620Z,30.78
2019-06-27T12:09:53.954Z,30.77
2019-06-27T12:12:20.260Z,30.64
2019-06-27T12:14:46.592Z,30.58
2019-06-27T12:17:12.908Z,30.53
2019-06-27T12:19:39.223Z,30.59
2019-06-27T12:22:05.554Z,30.60
2019-06-27T12:24:31.858Z,30.55
2019-06-27T12:26:58.223Z,30.48
2019-06-27T12:29:24.551Z,30.54
2019-06-27T12:31:51.881Z,30.54
2019-06-27T12:34:17.200Z,30.53
2019-06-27T12:36:43.497Z,30.56
2019-06-27T12:39:09.821Z,30.48
2019-06-27T12:41:36.127Z,30.50
2019-06-27T12:44:02.455Z,30.53
2019-06-27T12:46:28.761Z,30.55
2019-06-27T12:48:55.228Z,30.55
2019-06-27T12:51:21.446Z,30.53
2019-06-27T12:53:47.724Z,30.47
2019-06-27T12:56:14.075Z,30.44
2019-06-27T12:58:40.403Z,30.42
2019-06-27T13:01:06.700Z,30.37
2019-06-27T13:03:33.007Z,30.36
2019-06-27T13:05:59.330Z,30.34
2019-06-27T13:08:25.648Z,30.34
2019-06-27T13:10:52.049Z,30.32
2019-06-27T13:13:18.376Z,30.28
2019-06-27T13:15:44.688Z,30.19
2019-06-27T13:18:11.017Z,30.10
2019-06-27T13:20:37.535Z,30.10
2019-06-27T13:23:03.861Z,30.14
2019-06-27T13:25:33.868Z,30.13
2019-06-27T13:27:56.500Z,30.12
2019-06-27T13:30:22.829Z,30.20
2019-06-27T13:32:49.131Z,30.20
2019-06-27T13:35:15.503Z,30.20
2019-06-27T13:37:41.821Z,30.21
2019-06-27T13:40:08.072Z,30.19
2019-06-27T13:42:38.010Z,30.17
2019-06-27T13:45:00.715Z,30.15
2019-06-27T13:47:27.047Z,30.13
2019-06-27T13:49:53.386Z,30.11
2019-06-27T13:52:19.693Z,30.12
2019-06-27T13:54:46.101Z,30.07
2019-06-27T13:57:12.413Z,30.03
2019-06-27T13:59:38.743Z,30.00
2019-06-27T14:02:05.048Z,29.99
2019-06-27T14:04:31.518Z,30.01
2019-06-27T14:06:57.825Z,30.01
2019-06-27T14:09:24.139Z,29.98
2019-06-27T14:11:50.464Z,29.95
2019-06-27T14:14:16.770Z,29.98
2019-06-27T14:16:43.102Z,29.95
2019-06-27T14:19:09.411Z,29.94
2019-06-27T14:21:35.743Z,29.95
2019-06-27T14:24:02.046Z,29.93
2019-06-27T14:26:28.384Z,29.85
2019-06-27T14:28:54.729Z,29.84
2019-06-27T14:31:21.013Z,29.83
2019-06-27T14:33:47.338Z,29.84
2019-06-27T14:36:13.647Z,29.83
2019-06-27T14:38:39.974Z,29.80
2019-06-27T14:41:06.278Z,29.81
2019-06-27T14:43:32.660Z,29.84
2019-06-27T14:45:58.978Z,29.86
2019-06-27T14:48:25.280Z,29.85
2019-06-27T14:50:51.609Z,29.82
2019-06-27T14:53:17.909Z,29.83
2019-06-27T14:55:44.235Z,29.84
2019-06-27T14:58:10.559Z,29.83
2019-06-27T15:00:36.866Z,29.83
2019-06-27T15:03:03.187Z,29.81
2019-06-27T15:05:33.110Z,29.79
2019-06-27T15:07:55.831Z,29.79
2019-06-27T15:10:22.138Z,29.79
2019-06-27T15:12:57.077Z,29.81
2019-06-27T15:15:14.763Z,29.82
2019-06-27T15:17:41.071Z,29.82
2019-06-27T15:20:07.396Z,29.78
2019-06-27T15:22:33.705Z,29.78
2019-06-27T15:25:00.035Z,29.75
2019-06-27T15:27:26.367Z,29.75
2019-06-27T15:29:52.744Z,29.76
2019-06-27T15:32:19.014Z,29.76
2019-06-27T15:34:45.302Z,29.79
2019-06-27T15:37:11.619Z,29.79
2019-06-27T15:39:37.942Z,29.79
2019-06-27T15:42:04.244Z,29.79
2019-06-27T15:44:30.576Z,29.70
2019-06-27T15:46:57.202Z,29.61
2019-06-27T15:49:23.505Z,29.53
2019-06-27T15:51:49.827Z,29.49
2019-06-27T15:54:16.134Z,29.46
2019-06-27T15:56:42.480Z,29.44
2019-06-27T15:59:08.781Z,29.43
2019-06-27T16:01:35.111Z,29.43
2019-06-27T16:04:01.421Z,29.41
2019-06-27T16:06:27.729Z,29.37
2019-06-27T16:08:54.066Z,29.34
2019-06-27T16:11:20.382Z,29.34
2019-06-27T16:13:46.699Z,29.34
2019-06-27T16:16:13.026Z,29.34
2019-06-27T16:18:40.979Z,29.36
2019-06-27T16:21:05.680Z,29.37
2019-06-27T16:23:31.964Z,29.38
2019-06-27T16:25:58.269Z,29.38
2019-06-27T16:28:27.122Z,29.36
2019-06-27T16:30:50.914Z,29.38
2019-06-27T16:33:17.245Z,29.38
2019-06-27T16:35:43.554Z,29.38
2019-06-27T16:38:09.894Z,29.39
2019-06-27T16:40:36.200Z,29.37
2019-06-27T16:43:02.531Z,29.39
2019-06-27T16:45:28.877Z,29.37
2019-06-27T16:47:55.262Z,29.36
2019-06-27T16:50:21.587Z,29.35
2019-06-27T16:52:47.892Z,29.33
2019-06-27T16:55:14.223Z,29.32
2019-06-27T16:57:40.533Z,29.30
2019-06-27T17:00:06.948Z,29.30
2019-06-27T17:02:33.171Z,29.28
2019-06-27T17:04:59.473Z,29.28
2019-06-27T17:07:25.802Z,29.26
2019-06-27T17:09:52.100Z,29.24
2019-06-27T17:12:18.456Z,29.23
2019-06-27T17:14:44.730Z,29.22
2019-06-27T17:17:11.064Z,29.19
2019-06-27T17:19:37.364Z,29.17
2019-06-27T17:22:03.692Z,29.16
2019-06-27T17:24:30.019Z,29.13
2019-06-27T17:26:56.325Z,29.12
2019-06-27T17:29:22.659Z,29.09
2019-06-27T17:31:48.955Z,29.07
2019-06-27T17:34:15.263Z,29.05
2019-06-27T17:36:53.575Z,29.03
2019-06-27T17:39:07.903Z,29.01
2019-06-27T17:41:34.243Z,28.99
2019-06-27T17:44:00.565Z,28.98
2019-06-27T17:46:26.896Z,28.97
2019-06-27T17:48:53.254Z,28.94
2019-06-27T17:51:19.558Z,28.92
2019-06-27T17:53:45.888Z,28.90
2019-06-27T17:56:12.223Z,28.88
2019-06-27T17:58:38.551Z,28.85
2019-06-27T18:01:04.852Z,28.83
2019-06-27T18:03:31.166Z,28.80
2019-06-27T18:05:57.492Z,28.77
2019-06-27T18:08:23.800Z,28.76
2019-06-27T18:10:50.122Z,28.76
2019-06-27T18:13:16.428Z,28.74
2019-06-27T18:15:42.752Z,28.73
2019-06-27T18:18:09.081Z,28.70
2019-06-27T18:20:35.407Z,28.66
2019-06-27T18:23:01.775Z,28.62
2019-06-27T18:25:28.076Z,28.57
2019-06-27T18:27:54.407Z,28.55
2019-06-27T18:30:20.710Z,28.52
2019-06-27T18:32:47.081Z,28.48
2019-06-27T18:35:13.353Z,28.46
2019-06-27T18:37:39.687Z,28.43
2019-06-27T18:40:05.989Z,28.41
2019-06-27T18:42:32.321Z,28.39
2019-06-27T18:44:58.643Z,28.39
2019-06-27T18:47:24.951Z,28.36
2019-06-27T18:49:51.299Z,28.34
2019-06-27T18:52:17.600Z,28.31
2019-06-27T18:54:43.910Z,28.27
2019-06-27T18:57:10.236Z,28.24
2019-06-27T18:59:36.541Z,28.21
2019-06-27T19:02:02.851Z,28.21
2019-06-27T19:04:29.183Z,28.19
2019-06-27T19:06:55.484Z,28.15
2019-06-27T19:09:21.823Z,28.13
2019-06-27T19:11:48.124Z,28.10
2019-06-27T19:14:14.454Z,28.07
2019-06-27T19:16:40.758Z,28.05
2019-06-27T19:19:07.094Z,28.02
2019-06-27T19:21:33.415Z,28.01
2019-06-27T19:23:59.720Z,27.97
2019-06-27T19:26:26.048Z,27.96
2019-06-27T19:28:52.353Z,27.94
2019-06-27T19:31:18.699Z,27.90
2019-06-27T19:33:44.990Z,27.89
2019-06-27T19:36:11.315Z,27.87
2019-06-27T19:38:37.627Z,27.85
2019-06-27T19:41:03.933Z,27.81
2019-06-27T19:43:30.261Z,27.78
2019-06-27T19:45:56.570Z,27.75
2019-06-27T19:48:22.896Z,27.72
2019-06-27T19:50:49.214Z,27.71
2019-06-27T19:53:15.531Z,27.70
2019-06-27T19:55:41.846Z,27.69
2019-06-27T19:58:08.170Z,27.66
2019-06-27T20:00:34.501Z,27.61
2019-06-27T20:03:00.833Z,27.60
2019-06-27T20:05:27.141Z,27.56
2019-06-27T20:07:53.441Z,27.56
2019-06-27T20:10:19.752Z,27.54
2019-06-27T20:12:46.069Z,27.52
2019-06-27T20:15:12.396Z,27.50
2019-06-27T20:17:38.723Z,27.48
2019-06-27T20:20:05.147Z,27.46
2019-06-27T20:22:31.453Z,27.43
2019-06-27T20:24:57.788Z,27.40
2019-06-27T20:27:24.118Z,27.38
2019-06-27T20:29:50.451Z,27.32
2019-06-27T20:32:16.758Z,27.30
2019-06-27T20:34:43.092Z,27.30
2019-06-27T20:37:09.393Z,27.31
2019-06-27T20:39:35.705Z,27.29
2019-06-27T20:42:02.025Z,27.26
2019-06-27T20:44:28.362Z,27.26
2019-06-27T20:46:54.684Z,27.27
2019-06-27T20:49:21.013Z,27.26
2019-06-27T20:51:47.347Z,27.24
2019-06-27T20:54:13.676Z,27.25
2019-06-27T20:56:39.986Z,27.21
2019-06-27T20:59:06.307Z,27.19
2019-06-27T21:01:32.629Z,27.16
2019-06-27T21:03:58.944Z,27.16
2019-06-27T21:06:25.272Z,27.07
2019-06-27T21:08:52.119Z,27.05
2019-06-27T21:11:17.902Z,27.03
2019-06-27T21:13:44.204Z,27.01
2019-06-27T21:16:10.535Z,26.95
2019-06-27T21:18:36.920Z,26.93
2019-06-27T21:21:03.334Z,27.01
2019-06-27T21:23:29.507Z,27.08
2019-06-27T21:25:55.798Z,27.14
2019-06-27T21:28:22.108Z,27.10
2019-06-27T21:30:48.440Z,27.07
2019-06-27T21:33:14.749Z,27.02
2019-06-27T21:35:41.076Z,27.00
2019-06-27T21:38:07.395Z,26.98
2019-06-27T21:40:33.703Z,26.96
2019-06-27T21:43:00.028Z,26.89
2019-06-27T21:45:26.332Z,26.83
2019-06-27T21:47:52.657Z,26.80
2019-06-27T21:50:18.964Z,26.77
2019-06-27T21:52:45.294Z,26.75
2019-06-27T21:55:11.610Z,26.73
2019-06-27T21:57:37.918Z,26.72
2019-06-27T22:00:04.250Z,26.66
2019-06-27T22:02:30.598Z,26.62
2019-06-27T22:04:56.892Z,26.60
2019-06-27T22:07:23.196Z,26.63
2019-06-27T22:09:49.517Z,26.61
2019-06-27T22:12:15.824Z,26.57
2019-06-27T22:14:42.154Z,26.55
2019-06-27T22:17:08.475Z,26.56
2019-06-27T22:19:34.781Z,26.53
2019-06-27T22:22:01.179Z,26.47
2019-06-27T22:24:27.490Z,26.46
2019-06-27T22:26:53.817Z,26.42
2019-06-27T22:29:20.138Z,26.43
2019-06-27T22:31:46.449Z,26.40
2019-06-27T22:34:12.747Z,26.39
2019-06-27T22:36:39.062Z,26.39
2019-06-27T22:39:05.394Z,26.37
2019-06-27T22:41:31.699Z,26.34
2019-06-27T22:43:58.030Z,26.35
2019-06-27T22:46:24.356Z,26.32
2019-06-27T22:48:50.661Z,26.32
2019-06-27T22:51:16.994Z,26.29
2019-06-27T22:53:43.302Z,26.31
2019-06-27T22:56:09.609Z,26.30
2019-06-27T22:58:35.939Z,26.27
2019-06-27T23:01:02.242Z,26.25
2019-06-27T23:03:28.568Z,26.23
2019-06-27T23:05:54.877Z,26.21
2019-06-27T23:08:21.200Z,26.18
2019-06-27T23:10:47.499Z,26.17
2019-06-27T23:13:13.889Z,26.16
2019-06-27T23:15:40.161Z,26.16
2019-06-27T23:18:06.484Z,26.13
2019-06-27T23:20:32.817Z,26.18
2019-06-27T23:22:59.120Z,26.19
2019-06-27T23:25:25.451Z,26.18
2019-06-27T23:27:51.754Z,26.13
2019-06-27T23:30:18.084Z,26.11
2019-06-27T23:32:44.389Z,26.10
2019-06-27T23:35:10.698Z,26.11
2019-06-27T23:37:37.023Z,26.12
2019-06-27T23:40:13.615Z,26.12
2019-06-27T23:42:29.660Z,26.13
2019-06-27T23:44:55.965Z,26.12
2019-06-27T23:47:22.296Z,26.11
2019-06-27T23:49:48.602Z,26.08
2019-06-27T23:52:14.932Z,26.08
2019-06-27T23:54:41.252Z,26.04
2019-06-27T23:57:07.564Z,26.03
2019-06-27T23:59:33.892Z,26.02
